Time;durP1;ratioP1;P1;durP2;ratioP2;P2;SDS_P1;SDS_P2;PMS_P1;PMS_P2;Temp;Humidity;BMP_temperature;BMP_pressure;BME280_temperature;BME280_humidity;BME280_pressure;Samples;Min_cycle;Max_cycle;Signal;HPM_P1;HPM_P2
2022/12/04 00:00:39;;;;;;;88.90;53.70;;;;;;;-1.58;100.00;97278.20;105772;1301;22455;-87
2022/12/04 00:03:22;;;;;;;89.80;53.80;;;;;;;-1.64;100.00;97273.47;105770;1275;22470;-88
2022/12/04 00:05:51;;;;;;;86.90;53.90;;;;;;;-1.68;100.00;97273.69;104737;1300;1256875;-87
2022/12/04 00:08:20;;;;;;;82.60;51.60;;;;;;;-1.67;100.00;97272.92;105720;1301;22902;-87
2022/12/04 00:10:49;;;;;;;82.40;51.90;;;;;;;-1.67;100.00;97274.45;105792;1292;23927;-87
2022/12/04 00:13:18;;;;;;;83.20;50.60;;;;;;;-1.66;100.00;97272.98;105798;1278;22485;-87
2022/12/04 00:15:48;;;;;;;82.70;50.00;;;;;;;-1.64;100.00;97277.95;105732;1301;63274;-88
2022/12/04 00:18:18;;;;;;;81.70;50.30;;;;;;;-1.63;100.00;97278.27;105705;1299;23984;-88
2022/12/04 00:20:48;;;;;;;79.20;49.30;;;;;;;-1.59;100.00;97279.23;105819;1275;22520;-88
2022/12/04 00:23:17;;;;;;;82.30;48.80;;;;;;;-1.57;100.00;97278.53;105746;1289;22653;-87
2022/12/04 00:25:47;;;;;;;84.80;50.90;;;;;;;-1.55;100.00;97277.32;105672;1301;100133;-88
2022/12/04 00:28:17;;;;;;;79.20;51.10;;;;;;;-1.52;100.00;97280.71;105727;1300;22473;-88
2022/12/04 00:30:46;;;;;;;81.30;51.50;;;;;;;-1.51;100.00;97283.72;105806;1292;25240;-88
2022/12/04 00:33:16;;;;;;;80.10;50.70;;;;;;;-1.57;100.00;97286.14;105779;1288;22509;-87
2022/12/04 00:35:48;;;;;;;79.30;50.40;;;;;;;-1.63;100.00;97283.48;105736;1301;22596;-87
2022/12/04 00:38:17;;;;;;;81.10;50.20;;;;;;;-1.62;100.00;97286.69;105789;1286;22578;-88
2022/12/04 00:40:52;;;;;;;77.50;50.30;;;;;;;-1.60;100.00;97282.42;105779;1282;22617;-87
2022/12/04 00:43:22;;;;;;;80.80;50.90;;;;;;;-1.59;100.00;97283.35;105770;1278;24273;-87
2022/12/04 00:45:51;;;;;;;78.60;47.50;;;;;;;-1.60;100.00;97281.59;105701;1285;27996;-87
2022/12/04 00:48:20;;;;;;;77.40;48.50;;;;;;;-1.59;100.00;97276.31;105704;1301;22580;-87
2022/12/04 00:50:49;;;;;;;79.40;49.80;;;;;;;-1.57;100.00;97277.09;105767;1289;22457;-88
2022/12/04 00:53:18;;;;;;;82.00;50.20;;;;;;;-1.55;100.00;97272.28;105788;1301;25413;-88
2022/12/04 00:55:47;;;;;;;70.30;44.20;;;;;;;-1.52;100.00;97266.20;105617;1303;93189;-87
2022/12/04 00:58:17;;;;;;;76.60;45.40;;;;;;;-1.51;100.00;97264.76;105770;1301;22494;-87
2022/12/04 01:00:46;;;;;;;60.90;39.10;;;;;;;-1.47;100.00;97258.88;105701;1303;22507;-87
2022/12/04 01:03:19;;;;;;;60.40;38.50;;;;;;;-1.37;100.00;97255.02;105787;1289;22493;-88
2022/12/04 01:05:48;;;;;;;52.50;32.70;;;;;;;-1.27;100.00;97250.98;105686;1301;49256;-87
2022/12/04 01:08:17;;;;;;;41.70;27.40;;;;;;;-1.10;100.00;97250.73;105783;1300;22481;-87
2022/12/04 01:10:46;;;;;;;42.00;26.60;;;;;;;-0.83;100.00;97248.58;105789;1301;22510;-88
2022/12/04 01:13:18;;;;;;;41.00;24.70;;;;;;;-0.59;100.00;97241.39;105756;1276;22461;-87
2022/12/04 01:15:48;;;;;;;49.80;31.70;;;;;;;-0.46;100.00;97240.77;105695;1284;79518;-88
2022/12/04 01:18:17;;;;;;;50.90;30.40;;;;;;;-0.47;100.00;97239.73;105809;1294;22456;-87
2022/12/04 01:20:53;;;;;;;45.30;29.70;;;;;;;-0.43;100.00;97231.83;105772;1286;22541;-87
2022/12/04 01:23:22;;;;;;;45.50;27.80;;;;;;;-0.28;100.00;97229.98;105757;1279;22522;-88
2022/12/04 01:25:53;;;;;;;50.10;31.00;;;;;;;-0.15;100.00;97227.61;105694;1301;108775;-87
2022/12/04 01:28:23;;;;;;;45.00;28.20;;;;;;;-0.06;100.00;97228.04;105749;1299;22777;-87
2022/12/04 01:31:01;;;;;;;41.40;26.00;;;;;;;-0.01;100.00;97232.71;105839;1300;23664;-86
2022/12/04 01:33:31;;;;;;;35.70;22.50;;;;;;;0.05;100.00;97226.13;105787;1298;22489;-86
2022/12/04 01:36:02;;;;;;;35.60;22.70;;;;;;;0.15;100.00;97216.40;105690;1292;25721;-86
2022/12/04 01:38:33;;;;;;;36.90;23.20;;;;;;;0.32;100.00;97209.73;105773;1295;22517;-86
2022/12/04 01:41:02;;;;;;;34.80;20.20;;;;;;;0.42;100.00;97207.19;105799;1294;22478;-87
2022/12/04 01:43:32;;;;;;;40.00;24.90;;;;;;;0.50;100.00;97202.66;105799;1300;25819;-86
2022/12/04 01:46:02;;;;;;;41.60;24.80;;;;;;;0.63;100.00;97203.02;105714;1300;28864;-86
2022/12/04 01:48:33;;;;;;;38.20;25.40;;;;;;;0.69;100.00;97200.60;105773;1279;22556;-86
2022/12/04 01:51:08;;;;;;;37.50;23.60;;;;;;;0.69;100.00;97200.65;105704;1301;22474;-86
2022/12/04 01:53:41;;;;;;;51.70;35.40;;;;;;;0.59;100.00;97195.52;105749;1301;22527;-86
2022/12/04 01:56:11;;;;;;;36.40;26.00;;;;;;;0.40;100.00;97192.57;105734;1276;26552;-86
2022/12/04 01:58:43;;;;;;;45.70;28.70;;;;;;;0.43;100.00;97195.11;105770;1301;22482;-85
2022/12/04 02:01:12;;;;;;;38.20;25.90;;;;;;;0.37;100.00;97193.65;105797;1295;22455;-86
2022/12/04 02:03:42;;;;;;;34.50;24.40;;;;;;;0.30;100.00;97196.58;105790;1300;22475;-86
2022/12/04 02:06:10;;;;;;;34.20;22.50;;;;;;;0.28;100.00;97190.63;105635;1300;43999;-87
2022/12/04 02:08:40;;;;;;;36.40;23.50;;;;;;;0.34;100.00;97182.58;105774;1288;22488;-86
2022/12/04 02:11:18;;;;;;;34.00;23.40;;;;;;;0.38;100.00;97178.08;105774;1285;22991;-86
2022/12/04 02:13:56;;;;;;;37.00;23.50;;;;;;;0.45;100.00;97179.58;105787;1292;24173;-86
2022/12/04 02:16:36;;;;;;;37.90;26.00;;;;;;;0.50;100.00;97178.22;105743;1288;26556;-86
2022/12/04 02:19:17;;;;;;;38.10;22.70;;;;;;;0.44;100.00;97174.98;105775;1301;22465;-86
2022/12/04 02:21:50;;;;;;;32.10;21.30;;;;;;;0.45;100.00;97172.73;105825;1301;22472;-86
2022/12/04 02:24:55;;;;;;;35.30;23.90;;;;;;;0.48;100.00;97170.11;105818;1301;22487;-86
2022/12/04 02:27:33;;;;;;;37.30;25.10;;;;;;;0.51;100.00;97168.78;105270;1303;22466;-86
2022/12/04 02:30:05;;;;;;;34.20;24.00;;;;;;;0.50;100.00;97169.42;105339;1294;22581;-86
2022/12/04 02:32:42;;;;;;;34.10;23.40;;;;;;;0.45;100.00;97167.75;105287;1288;22554;-86
2022/12/04 02:35:15;;;;;;;38.70;24.20;;;;;;;0.43;100.00;97168.66;105217;1305;66934;-86
2022/12/04 02:37:47;;;;;;;35.80;22.90;;;;;;;0.41;100.00;97176.43;105488;1304;22508;-86
2022/12/04 02:40:24;;;;;;;33.90;22.50;;;;;;;0.34;100.00;97178.69;105508;1303;22478;-86
2022/12/04 02:42:59;;;;;;;34.90;22.90;;;;;;;0.32;100.00;97181.94;105457;1304;22496;-86
2022/12/04 02:45:33;;;;;;;35.60;24.80;;;;;;;0.27;100.00;97181.00;105452;1301;76830;-86
2022/12/04 02:48:05;;;;;;;34.80;22.50;;;;;;;0.29;100.00;97179.20;105768;1301;22465;-86
2022/12/04 02:50:37;;;;;;;33.00;23.00;;;;;;;0.38;100.00;97176.80;105806;1301;24284;-86
2022/12/04 02:53:09;;;;;;;32.20;21.70;;;;;;;0.44;100.00;97181.43;105713;1301;22468;-86
2022/12/04 02:55:44;;;;;;;40.30;26.30;;;;;;;0.48;100.00;97178.66;105748;1288;22989;-86
2022/12/04 02:58:18;;;;;;;35.00;24.60;;;;;;;0.49;100.00;97174.68;105795;1301;22481;-86
2022/12/04 03:00:48;;;;;;;33.60;22.40;;;;;;;0.47;100.00;97172.56;105821;1301;22558;-86
2022/12/04 03:03:21;;;;;;;36.20;24.80;;;;;;;0.42;100.00;97172.95;105760;1295;25355;-87
2022/12/04 03:05:56;;;;;;;40.10;25.30;;;;;;;0.37;100.00;97175.08;105467;1303;51383;-86
2022/12/04 03:08:30;;;;;;;35.80;22.50;;;;;;;0.25;100.00;97176.50;105772;1279;22478;-86
2022/12/04 03:11:03;;;;;;;27.50;18.70;;;;;;;0.08;100.00;97175.60;105808;1286;22479;-86
2022/12/04 03:13:38;;;;;;;30.50;19.60;;;;;;;-0.07;100.00;97173.77;105819;1291;25597;-86
2022/12/04 03:16:13;;;;;;;25.40;17.60;;;;;;;-0.15;100.00;97175.70;105732;1296;65139;-86
2022/12/04 03:18:46;;;;;;;26.80;18.90;;;;;;;-0.20;100.00;97170.91;105720;1295;22457;-86
2022/12/04 03:21:18;;;;;;;32.30;20.50;;;;;;;-0.20;100.00;97179.14;105831;1285;23217;-87
2022/12/04 03:23:51;;;;;;;26.90;19.00;;;;;;;-0.20;100.00;97185.91;105799;1296;22686;-87
2022/12/04 03:26:27;;;;;;;29.40;20.90;;;;;;;-0.21;100.00;97186.78;105752;1298;22555;-87
2022/12/04 03:29:02;;;;;;;31.70;20.90;;;;;;;-0.25;100.00;97187.27;105755;1286;22468;-86
2022/12/04 03:31:48;;;;;;;28.00;20.00;;;;;;;-0.30;100.00;97182.58;105750;1279;22506;-87
2022/12/04 03:34:26;;;;;;;38.50;25.30;;;;;;;-0.33;100.00;97184.58;105746;1282;22473;-86
2022/12/04 03:37:01;;;;;;;34.10;21.70;;;;;;;-0.38;100.00;97188.02;104471;1300;1755991;-87
2022/12/04 03:39:38;;;;;;;31.10;21.30;;;;;;;-0.55;100.00;97188.54;105759;1301;22553;-87
2022/12/04 03:42:15;;;;;;;33.80;22.00;;;;;;;-0.72;100.00;97192.34;105790;1300;22698;-87
2022/12/04 03:44:48;;;;;;;31.10;22.50;;;;;;;-0.81;100.00;97192.21;105716;1296;22483;-87
2022/12/04 03:47:24;;;;;;;30.60;21.20;;;;;;;-0.87;100.00;97196.84;105687;1291;22464;-86
2022/12/04 03:50:00;;;;;;;74.20;44.80;;;;;;;-1.04;100.00;97195.55;105800;1301;22605;-87
2022/12/04 03:52:35;;;;;;;79.80;41.40;;;;;;;-1.44;100.00;97198.14;105739;1301;22964;-87
2022/12/04 03:55:08;;;;;;;112.70;42.80;;;;;;;-1.80;100.00;97198.55;105714;1285;23614;-87
2022/12/04 03:57:41;;;;;;;109.00;46.40;;;;;;;-2.05;100.00;97197.92;105816;1272;26373;-87
2022/12/04 04:00:16;;;;;;;80.50;41.20;;;;;;;-2.16;100.00;97200.88;105811;1296;22455;-87
2022/12/04 04:02:52;;;;;;;112.50;40.80;;;;;;;-2.35;100.00;97207.66;105786;1299;22451;-87
2022/12/04 04:05:24;;;;;;;88.70;35.80;;;;;;;-2.49;100.00;97207.57;105774;1301;27494;-88
2022/12/04 04:08:24;;;;;;;89.20;37.60;;;;;;;-2.54;100.00;97205.90;105774;1295;22466;-88
2022/12/04 04:10:48;;;;;;;113.00;42.10;;;;;;;-2.56;100.00;97210.11;105719;1304;24247;-88
2022/12/04 04:24:40;;;;;;;66.30;33.50;;;;;;;-2.46;100.00;97208.40;105712;1301;21844;-88
2022/12/04 04:27:08;;;;;;;67.90;36.70;;;;;;;-2.53;100.00;97204.56;105707;1298;29352;-87
2022/12/04 04:29:37;;;;;;;73.00;39.40;;;;;;;-2.63;100.00;97203.20;105757;1294;22493;-87
2022/12/04 04:32:12;;;;;;;63.00;37.00;;;;;;;-2.70;100.00;97198.23;105796;1291;22510;-87
2022/12/04 04:34:49;;;;;;;67.30;37.20;;;;;;;-2.72;100.00;97195.69;105750;1300;22461;-87
2022/12/04 04:37:26;;;;;;;64.20;36.30;;;;;;;-2.74;100.00;97191.60;105703;1300;52329;-87
2022/12/04 04:40:01;;;;;;;73.90;39.70;;;;;;;-2.73;100.00;97189.29;105759;1294;24367;-87
2022/12/04 04:42:34;;;;;;;59.80;37.90;;;;;;;-2.73;100.00;97190.33;105830;1275;22528;-88
2022/12/04 04:45:08;;;;;;;66.80;41.10;;;;;;;-2.70;100.00;97192.84;105696;1286;27361;-87
2022/12/04 04:47:46;;;;;;;57.10;35.60;;;;;;;-2.59;100.00;97197.10;105765;1295;22463;-87
2022/12/04 04:50:16;;;;;;;62.20;37.10;;;;;;;-2.46;100.00;97196.35;105804;1294;22533;-87
2022/12/04 04:52:48;;;;;;;58.70;36.70;;;;;;;-2.38;100.00;97191.49;105793;1279;25365;-86
2022/12/04 04:55:19;;;;;;;63.30;38.10;;;;;;;-2.34;100.00;97193.97;105727;1301;55115;-87
2022/12/04 04:57:47;;;;;;;63.30;38.20;;;;;;;-2.36;100.00;97199.62;105802;1295;22462;-86
2022/12/04 05:00:19;;;;;;;64.10;38.20;;;;;;;-2.42;100.00;97198.34;105793;1279;22468;-87
2022/12/04 05:02:49;;;;;;;59.20;36.80;;;;;;;-2.38;100.00;97202.11;105799;1283;22543;-87
2022/12/04 05:05:18;;;;;;;57.80;36.50;;;;;;;-2.34;100.00;97203.67;104292;1295;2010850;-88
2022/12/04 05:07:47;;;;;;;65.20;36.50;;;;;;;-2.30;100.00;97204.95;105576;1302;22519;-87
2022/12/04 05:10:16;;;;;;;66.30;38.90;;;;;;;-2.27;100.00;97205.23;105596;1291;22517;-87
2022/12/04 05:12:45;;;;;;;61.30;37.60;;;;;;;-2.27;100.00;97203.74;105509;1298;22471;-86
2022/12/04 05:15:13;;;;;;;60.30;35.70;;;;;;;-2.27;100.00;97205.23;105553;1282;26062;-87
2022/12/04 05:17:42;;;;;;;55.20;34.80;;;;;;;-2.30;100.00;97206.91;105727;1293;22938;-86
2022/12/04 05:20:12;;;;;;;57.10;36.20;;;;;;;-2.31;100.00;97206.27;105753;1292;25220;-87
2022/12/04 05:22:45;;;;;;;59.40;35.90;;;;;;;-2.28;100.00;97202.69;105789;1295;22518;-87
2022/12/04 05:25:14;;;;;;;57.60;33.60;;;;;;;-2.31;100.00;97201.91;105640;1291;69672;-87
2022/12/04 05:27:47;;;;;;;54.60;33.70;;;;;;;-2.30;100.00;97200.12;105643;1303;22480;-87
2022/12/04 05:30:19;;;;;;;62.40;37.50;;;;;;;-2.29;100.00;97196.05;105482;1291;22566;-86
2022/12/04 05:32:47;;;;;;;62.70;37.60;;;;;;;-2.29;100.00;97197.56;105567;1295;22507;-87
2022/12/04 05:35:16;;;;;;;62.00;37.90;;;;;;;-2.31;100.00;97201.71;105564;1295;39578;-87
2022/12/04 05:37:45;;;;;;;56.00;35.80;;;;;;;-2.31;100.00;97200.95;105757;1301;22496;-86
2022/12/04 05:40:15;;;;;;;56.80;35.30;;;;;;;-2.30;100.00;97202.52;105772;1301;22525;-87
2022/12/04 05:42:43;;;;;;;50.00;31.60;;;;;;;-2.28;100.00;97196.95;105811;1301;21688;-87
2022/12/04 05:45:12;;;;;;;57.50;36.00;;;;;;;-2.29;100.00;97204.13;105735;1288;22495;-89
2022/12/04 05:47:42;;;;;;;54.00;33.00;;;;;;;-2.32;100.00;97200.14;105482;1301;22490;-87
2022/12/04 05:50:13;;;;;;;57.90;34.30;;;;;;;-2.45;100.00;97202.86;105494;1303;24334;-87
2022/12/04 05:52:41;;;;;;;54.60;34.50;;;;;;;-2.55;100.00;97202.30;105515;1303;22471;-86
2022/12/04 05:55:10;;;;;;;61.70;35.00;;;;;;;-2.54;100.00;97200.15;105405;1303;86022;-87
2022/12/04 05:57:39;;;;;;;56.90;34.50;;;;;;;-2.53;100.00;97203.85;105770;1292;22495;-86
2022/12/04 06:00:12;;;;;;;61.30;35.80;;;;;;;-2.60;100.00;97205.59;105715;1303;23168;-86
2022/12/04 06:02:41;;;;;;;55.60;33.80;;;;;;;-2.65;100.00;97210.81;105790;1301;25296;-87
2022/12/04 06:05:10;;;;;;;63.20;37.50;;;;;;;-2.68;100.00;97203.69;105737;1285;24296;-87
2022/12/04 06:07:38;;;;;;;57.10;35.00;;;;;;;-2.66;100.00;97201.73;105810;1301;22487;-86
2022/12/04 06:10:08;;;;;;;61.80;36.10;;;;;;;-2.63;100.00;97199.41;105750;1292;22991;-87
2022/12/04 06:12:37;;;;;;;63.30;39.40;;;;;;;-2.70;100.00;97202.32;105819;1301;23431;-87
2022/12/04 06:15:07;;;;;;;64.20;37.70;;;;;;;-2.69;100.00;97206.88;105646;1294;27759;-87
2022/12/04 06:17:34;;;;;;;;;;;;;;;-2.62;100.00;97212.23;105758;1289;22464;-87
2022/12/04 06:20:07;;;;;;;55.90;31.90;;;;;;;-2.59;100.00;97211.51;105776;1301;25334;-88
2022/12/04 06:22:36;;;;;;;49.00;29.70;;;;;;;-2.56;100.00;97214.34;105792;1279;25203;-87
2022/12/04 06:25:07;;;;;;;55.70;35.40;;;;;;;-2.56;100.00;97214.27;105706;1283;52086;-88
2022/12/04 06:27:36;;;;;;;54.50;34.20;;;;;;;-2.59;100.00;97211.20;105652;1301;23794;-88
2022/12/04 06:30:07;;;;;;;55.70;34.50;;;;;;;-2.58;100.00;97209.48;105606;1303;22479;-87
2022/12/04 06:32:36;;;;;;;62.40;38.00;;;;;;;-2.57;100.00;97209.02;105520;1303;24539;-87
2022/12/04 06:35:06;;;;;;;57.70;36.90;;;;;;;-2.65;100.00;97201.34;105582;1301;23749;-87
2022/12/04 06:37:35;;;;;;;57.80;36.50;;;;;;;-2.65;100.00;97199.04;105770;1301;22490;-88
2022/12/04 06:40:05;;;;;;;55.40;36.80;;;;;;;-2.60;100.00;97196.77;105761;1286;22535;-88
2022/12/04 06:42:33;;;;;;;48.80;33.20;;;;;;;-2.56;100.00;97200.21;105710;1282;22589;-88
2022/12/04 06:45:02;;;;;;;51.10;34.20;;;;;;;-2.47;100.00;97204.05;105692;1296;26796;-88
2022/12/04 06:47:31;;;;;;;60.00;36.40;;;;;;;-2.41;100.00;97208.77;105738;1285;22548;-87
2022/12/04 06:50:00;;;;;;;49.40;31.90;;;;;;;-2.39;100.00;97211.21;105766;1301;22481;-87
2022/12/04 06:52:31;;;;;;;53.70;33.60;;;;;;;-2.37;100.00;97209.92;105795;1292;22583;-88
2022/12/04 06:55:00;;;;;;;55.50;35.50;;;;;;;-2.34;100.00;97214.94;105719;1301;26149;-84
2022/12/04 06:57:29;;;;;;;56.10;33.90;;;;;;;-2.30;100.00;97221.21;105766;1299;25366;-88
2022/12/04 06:59:59;;;;;;;53.10;32.80;;;;;;;-2.23;100.00;97224.18;105762;1284;21963;-87
2022/12/04 07:02:27;;;;;;;54.90;34.70;;;;;;;-2.21;100.00;97223.27;105789;1291;22519;-88
2022/12/04 07:04:59;;;;;;;55.90;36.10;;;;;;;-2.33;100.00;97222.95;105726;1295;23927;-87
2022/12/04 07:07:30;;;;;;;60.60;38.80;;;;;;;-2.44;100.00;97218.13;105759;1301;25610;-87
2022/12/04 07:09:59;;;;;;;50.50;34.20;;;;;;;-2.48;100.00;97212.55;105748;1301;22476;-87
2022/12/04 07:12:28;;;;;;;42.40;28.60;;;;;;;-2.43;100.00;97211.80;105786;1289;22489;-88
2022/12/04 07:14:57;;;;;;;40.40;27.30;;;;;;;-2.30;100.00;97215.39;105758;1295;81069;-88
2022/12/04 07:17:25;;;;;;;44.80;31.40;;;;;;;-2.18;100.00;97214.69;105760;1301;22779;-88
2022/12/04 07:19:54;;;;;;;39.50;27.80;;;;;;;-2.10;100.00;97210.80;105809;1301;22579;-89
2022/12/04 07:22:22;;;;;;;41.70;29.00;;;;;;;-2.01;100.00;97200.92;105807;1300;22589;-89
2022/12/04 07:24:51;;;;;;;36.50;25.00;;;;;;;-1.83;100.00;97200.79;105807;1285;25256;-89
2022/12/04 07:27:20;;;;;;;49.90;32.70;;;;;;;-1.68;100.00;97201.84;105754;1301;24309;-89
2022/12/04 07:29:52;;;;;;;47.50;33.30;;;;;;;-1.63;100.00;97193.70;105763;1301;22678;-88
2022/12/04 07:32:20;;;;;;;34.70;23.50;;;;;;;-1.61;100.00;97189.15;105816;1293;22449;-88
2022/12/04 07:34:49;;;;;;;28.80;19.60;;;;;;;-1.45;100.00;97190.94;105768;1299;22496;-88
2022/12/04 07:37:17;;;;;;;24.60;17.30;;;;;;;-1.22;100.00;97185.91;105732;1300;26233;-88
2022/12/04 07:39:46;;;;;;;23.30;15.80;;;;;;;-1.01;100.00;97184.13;105704;1301;22644;-88
2022/12/04 07:42:16;;;;;;;29.10;19.80;;;;;;;-0.79;100.00;97182.28;105742;1293;25355;-88
2022/12/04 07:44:47;;;;;;;29.00;20.30;;;;;;;-0.62;100.00;97176.45;105824;1301;24329;-88
2022/12/04 07:47:16;;;;;;;27.00;19.80;;;;;;;-0.49;100.00;97176.06;105708;1299;52528;-89
2022/12/04 07:49:45;;;;;;;29.70;20.60;;;;;;;-0.33;100.00;97177.17;105795;1279;22492;-88
2022/12/04 07:52:13;;;;;;;29.00;19.90;;;;;;;-0.13;100.00;97174.42;105800;1298;22466;-88
2022/12/04 07:54:42;;;;;;;28.70;19.20;;;;;;;0.04;100.00;97177.43;105636;1302;22615;-88
2022/12/04 07:57:11;;;;;;;30.00;19.60;;;;;;;0.28;100.00;97182.80;105751;1301;25262;-88
2022/12/04 07:59:39;;;;;;;29.30;21.20;;;;;;;0.48;100.00;97185.80;105794;1292;22571;-86
2022/12/04 08:02:08;;;;;;;26.20;19.60;;;;;;;0.71;100.00;97182.64;105798;1301;23875;-87
2022/12/04 08:04:38;;;;;;;25.70;18.90;;;;;;;1.00;100.00;97178.50;105772;1301;22504;-88
2022/12/04 08:07:07;;;;;;;24.30;17.40;;;;;;;1.27;100.00;97178.42;105731;1293;76586;-88
2022/12/04 08:09:36;;;;;;;50.30;35.00;;;;;;;1.29;100.00;97184.64;105780;1301;22480;-88
2022/12/04 08:12:05;;;;;;;48.20;34.20;;;;;;;1.09;100.00;97181.54;105799;1301;22506;-87
2022/12/04 08:14:34;;;;;;;54.50;39.10;;;;;;;1.03;100.00;97184.77;105780;1301;22499;-88
2022/12/04 08:17:05;;;;;;;51.70;36.60;;;;;;;1.00;100.00;97184.85;105698;1291;76580;-88
2022/12/04 08:19:34;;;;;;;64.40;45.10;;;;;;;1.01;100.00;97190.96;105800;1287;22466;-88
2022/12/04 08:22:04;;;;;;;62.80;43.20;;;;;;;0.72;100.00;97194.23;105806;1291;22625;-87
2022/12/04 08:24:33;;;;;;;61.10;43.90;;;;;;;0.80;100.00;97191.34;105822;1291;22465;-87
2022/12/04 08:27:02;;;;;;;63.50;45.20;;;;;;;0.90;100.00;97192.73;105769;1291;36611;-87
2022/12/04 08:29:31;;;;;;;59.00;42.70;;;;;;;1.05;100.00;97195.13;105850;1285;24281;-87
2022/12/04 08:32:01;;;;;;;61.10;43.70;;;;;;;1.12;100.00;97191.14;105778;1291;22474;-87
2022/12/04 08:34:33;;;;;;;57.60;42.50;;;;;;;1.21;100.00;97193.13;105867;1289;22512;-87
2022/12/04 08:37:03;;;;;;;60.50;42.80;;;;;;;1.18;100.00;97192.02;104321;1290;2073285;-88
2022/12/04 08:39:34;;;;;;;63.70;42.20;;;;;;;0.87;100.00;97193.30;105867;1285;22890;-87
2022/12/04 08:42:03;;;;;;;61.90;44.00;;;;;;;0.68;100.00;97190.79;105847;1288;24334;-87
2022/12/04 08:44:36;;;;;;;57.70;41.20;;;;;;;0.62;100.00;97189.23;105798;1291;22516;-87
2022/12/04 08:47:07;;;;;;;61.20;42.60;;;;;;;0.51;100.00;97185.04;105713;1286;61262;-87
2022/12/04 08:49:35;;;;;;;;;;;;;;;0.39;100.00;97185.59;105813;1301;23042;-87
2022/12/04 08:52:07;;;;;;;57.60;40.80;;;;;;;0.35;100.00;97193.41;105767;1295;22493;-87
2022/12/04 08:54:38;;;;;;;62.80;45.30;;;;;;;0.32;100.00;97196.74;105827;1307;25259;-86
2022/12/04 08:57:11;;;;;;;61.40;45.40;;;;;;;0.33;100.00;97198.63;105741;1282;25363;-86
2022/12/04 08:59:42;;;;;;;65.00;43.80;;;;;;;0.43;100.00;97190.77;105791;1306;22592;-87
2022/12/04 09:02:15;;;;;;;67.80;45.90;;;;;;;0.51;100.00;97187.41;105806;1301;21826;-87
2022/12/04 09:04:45;;;;;;;66.70;46.20;;;;;;;0.72;100.00;97186.97;105799;1301;24444;-88
2022/12/04 09:07:17;;;;;;;57.00;42.70;;;;;;;1.02;100.00;97186.66;105802;1304;24831;-86
2022/12/04 09:09:48;;;;;;;63.00;44.00;;;;;;;1.23;100.00;97184.70;105805;1299;22538;-88
2022/12/04 09:12:18;;;;;;;63.20;45.60;;;;;;;1.37;100.00;97182.60;105808;1292;23516;-85
2022/12/04 09:14:49;;;;;;;60.30;43.90;;;;;;;1.55;100.00;97186.52;105782;1304;22591;-87
2022/12/04 09:17:22;;;;;;;62.20;43.50;;;;;;;1.68;100.00;97181.20;105753;1301;28927;-87
2022/12/04 09:19:52;;;;;;;71.40;50.30;;;;;;;1.64;100.00;97183.39;105785;1286;22468;-90
2022/12/04 09:22:26;;;;;;;70.90;50.20;;;;;;;1.66;100.00;97188.77;105796;1288;22501;-89
2022/12/04 09:24:55;;;;;;;73.00;53.80;;;;;;;1.84;100.00;97192.65;105782;1301;22658;-88
2022/12/04 09:27:25;;;;;;;53.80;39.10;;;;;;;2.01;100.00;97191.15;105767;1293;30318;-86
2022/12/04 09:29:55;;;;;;;74.70;55.40;;;;;;;2.20;100.00;97192.09;105831;1292;22696;-84
2022/12/04 09:32:26;;;;;;;65.50;48.80;;;;;;;2.35;100.00;97198.52;105862;1292;23211;-85
2022/12/04 09:34:56;;;;;;;66.70;49.60;;;;;;;2.29;100.00;97197.80;105847;1285;23075;-86
2022/12/04 09:37:28;;;;;;;71.40;51.00;;;;;;;2.15;100.00;97195.19;105773;1285;23713;-90
2022/12/04 09:40:04;;;;;;;66.40;50.10;;;;;;;2.08;100.00;97195.30;105859;1285;22732;-90
2022/12/04 09:42:41;;;;;;;62.50;43.80;;;;;;;2.18;100.00;97192.60;105877;1291;25449;-85
2022/12/04 09:45:15;;;;;;;64.50;47.10;;;;;;;2.32;100.00;97191.89;105819;1285;63678;-85
2022/12/04 09:47:47;;;;;;;57.90;45.00;;;;;;;2.44;100.00;97185.27;105863;1286;25209;-87
2022/12/04 09:50:21;;;;;;;57.20;42.50;;;;;;;2.46;100.00;97181.59;105858;1285;22472;-84
2022/12/04 09:52:58;;;;;;;57.20;42.80;;;;;;;2.46;100.00;97182.80;105816;1285;22490;-89
2022/12/04 09:55:36;;;;;;;55.30;43.90;;;;;;;2.56;100.00;97180.67;105765;1276;26184;-89
2022/12/04 09:58:22;;;;;;;59.80;45.10;;;;;;;2.60;100.00;97173.74;105781;1285;22527;-88
2022/12/04 10:00:54;;;;;;;59.40;42.90;;;;;;;2.73;100.00;97166.63;105764;1301;22542;-88
2022/12/04 10:03:30;;;;;;;58.90;44.40;;;;;;;2.82;100.00;97160.40;105793;1285;22460;-89
2022/12/04 10:06:13;;;;;;;60.30;47.60;;;;;;;2.70;100.00;97164.64;105723;1292;74867;-89
2022/12/04 10:08:49;;;;;;;61.20;46.10;;;;;;;2.49;100.00;97166.86;105778;1282;22497;-88
2022/12/04 10:11:26;;;;;;;62.00;47.00;;;;;;;2.21;100.00;97164.16;105799;1292;23869;-88
2022/12/04 10:14:10;;;;;;;60.70;47.80;;;;;;;2.02;100.00;97166.29;105793;1292;22763;-87
2022/12/04 10:16:56;;;;;;;57.90;45.50;;;;;;;1.87;100.00;97164.67;105752;1293;28028;-85
2022/12/04 10:19:35;;;;;;;64.90;47.70;;;;;;;1.72;100.00;97161.86;105793;1299;22464;-90
2022/12/04 10:22:13;;;;;;;62.80;46.80;;;;;;;1.67;100.00;97160.66;105785;1292;22455;-89
2022/12/04 10:24:47;;;;;;;62.00;47.70;;;;;;;1.64;100.00;97153.73;105612;1291;22468;-87
2022/12/04 10:27:23;;;;;;;66.20;47.80;;;;;;;1.69;100.00;97149.77;105701;1285;23321;-87
2022/12/04 10:29:56;;;;;;;52.50;41.30;;;;;;;1.75;100.00;97148.42;105738;1283;22456;-86
2022/12/04 10:32:29;;;;;;;68.30;51.30;;;;;;;1.78;100.00;97151.64;105850;1293;25425;-89
2022/12/04 10:35:08;;;;;;;73.20;52.00;;;;;;;1.78;100.00;97150.20;105785;1292;23458;-87
2022/12/04 10:37:43;;;;;;;67.40;48.50;;;;;;;1.89;100.00;97148.95;105802;1299;24446;-90
2022/12/04 10:40:21;;;;;;;62.90;47.70;;;;;;;2.09;100.00;97144.48;105763;1299;24347;-88
2022/12/04 10:43:01;;;;;;;73.10;52.50;;;;;;;2.22;100.00;97143.91;105787;1291;22467;-89
2022/12/04 10:45:31;;;;;;;;;;;;;;;2.44;100.00;97134.73;102621;1285;2267717;-89
2022/12/04 10:48:02;;;;;;;59.80;44.60;;;;;;;2.68;100.00;97124.31;105746;1292;22495;-89
2022/12/04 10:50:35;;;;;;;;;;;;;;;2.82;100.00;97123.98;105778;1301;22435;-89
2022/12/04 10:53:06;;;;;;;57.50;42.60;;;;;;;2.78;100.00;97117.48;105867;1276;22476;-90
2022/12/04 10:55:42;;;;;;;56.50;42.90;;;;;;;2.65;100.00;97116.41;104484;1301;1759679;-90
2022/12/04 10:58:20;;;;;;;58.80;44.70;;;;;;;2.57;100.00;97120.46;105781;1286;22469;-89
2022/12/04 11:01:03;;;;;;;59.10;46.90;;;;;;;2.54;100.00;97119.73;105753;1301;22470;-90
2022/12/04 11:03:36;;;;;;;70.30;53.10;;;;;;;2.62;100.00;97117.67;105790;1285;25553;-90
2022/12/04 11:06:14;;;;;;;63.70;51.60;;;;;;;2.84;100.00;97110.34;105633;1301;67505;-91
2022/12/04 11:08:49;;;;;;;59.00;48.60;;;;;;;3.17;100.00;97106.69;105895;1301;23814;-89
2022/12/04 11:11:28;;;;;;;61.80;47.70;;;;;;;3.47;100.00;97106.18;105874;1301;25318;-89
2022/12/04 11:14:06;;;;;;;57.60;45.20;;;;;;;3.61;100.00;97110.98;105820;1285;25363;-88
2022/12/04 11:16:38;;;;;;;58.60;46.80;;;;;;;3.72;100.00;97101.59;105729;1285;63018;-89
2022/12/04 11:19:21;;;;;;;57.80;44.10;;;;;;;3.92;100.00;97096.52;105922;1301;24457;-89
2022/12/04 11:21:55;;;;;;;54.00;41.70;;;;;;;4.05;100.00;97093.61;105849;1301;22470;-89
2022/12/04 11:24:30;;;;;;;61.90;48.40;;;;;;;4.00;100.00;97089.14;105749;1301;22501;-88
2022/12/04 11:26:59;;;;;;;57.20;43.50;;;;;;;3.88;100.00;97083.77;105655;1301;60125;-88
2022/12/04 11:29:37;;;;;;;62.80;47.70;;;;;;;3.83;100.00;97082.73;105754;1301;22532;-88
2022/12/04 11:32:07;;;;;;;61.80;47.70;;;;;;;3.72;100.00;97086.58;105758;1301;22469;-89
2022/12/04 11:34:40;;;;;;;63.40;47.30;;;;;;;3.67;100.00;97081.86;105751;1280;22479;-89
2022/12/04 11:37:20;;;;;;;64.10;48.70;;;;;;;3.72;100.00;97082.45;105476;1296;135066;-89
2022/12/04 11:39:55;;;;;;;65.50;50.70;;;;;;;3.75;100.00;97080.73;105754;1281;22509;-88